Bookmark and Share
Track history (hours):
 

Maersk Bulan

Last reported at 2014-Apr-09 10:04 UTC. Time now 2014-Apr-23 09:26 UTC.
Position N 35°42' W 007°27'.
Warning: this ship's position is 13 days out of date.

Length 223 m; draft 11.5 m.

Type: Ship (hazmat cat A). MMSI: 563455000.

NotesDate/timePositionNaut miles runAvg speedWind from/ knotsBaromVisibWave heightAir tempDewpointWater temp
2014-Apr-09 10:04N 35°42' W 007°27'911.7
2014-Apr-09 09:18N 35°44' W 007°17'1113.4
2014-Apr-09 08:30N 35°48' W 007°04'1111.5
2014-Apr-09 07:33N 35°50' W 006°51'1311.6
2014-Apr-09 06:26N 35°54' W 006°35'4711.2
2014-Apr-09 02:15N 35°58' W 005°38'6 9.4
2014-Apr-09 01:33N 35°60' W 005°30'9 8.5
2014-Apr-09 00:33N 36°06' W 005°23'3 3.1
2014-Apr-08 23:32N 36°08' W 005°26'0 0.0
2014-Apr-08 22:32N 36°08' W 005°26'0 0.0
2014-Apr-08 21:32N 36°08' W 005°26'0 0.0
2014-Apr-08 20:32N 36°08' W 005°26'0 0.0
2014-Apr-08 19:32N 36°08' W 005°26'0 0.0
2014-Apr-08 18:32N 36°08' W 005°26'0 0.0
2014-Apr-08 17:32N 36°08' W 005°26'0 0.0
2014-Apr-08 16:32N 36°08' W 005°26'0 0.0
2014-Apr-08 15:32N 36°08' W 005°26'0 0.0
2014-Apr-08 14:32N 36°08' W 005°26'0 0.0
2014-Apr-08 13:32N 36°08' W 005°26'0 0.0
2014-Apr-08 12:32N 36°08' W 005°26'0 0.0
2014-Apr-08 11:32N 36°08' W 005°26'0 0.0
2014-Apr-08 10:29N 36°08' W 005°26'0 0.0
2014-Apr-08 09:32N 36°08' W 005°26'0 0.0
2014-Apr-08 08:32N 36°08' W 005°26'0 0.0
2014-Apr-08 07:32N 36°08' W 005°26'0 0.0
2014-Apr-08 06:32N 36°08' W 005°26'0 0.0
2014-Apr-08 05:29N 36°08' W 005°26'0 0.0
2014-Apr-08 04:32N 36°08' W 005°26'2 1.8
2014-Apr-08 03:33N 36°08' W 005°24'8 7.9
2014-Apr-08 02:33N 36°04' W 005°16'1110.6
2014-Apr-08 01:33N 36°05' W 005°03'  
2014-Apr-04 17:33N 36°59' E 013°44'1111.2
2014-Apr-04 16:33N 36°54' E 013°57'1111.0
2014-Apr-04 15:33N 36°49' E 014°09'1110.6
2014-Apr-04 14:33N 36°45' E 014°21'10 9.7
2014-Apr-04 13:33N 36°40' E 014°32'9 9.3
2014-Apr-04 12:33N 36°36' E 014°42'42310.8
2014-Apr-02 21:33N 36°40' E 023°28'1212.0
2014-Apr-02 20:34N 36°50' E 023°36'1313.4
2014-Apr-02 19:33N 37°02' E 023°44'1514.8
2014-Apr-02 18:31N 37°15' E 023°54'1515.0
2014-Apr-02 17:33N 37°28' E 024°03'1614.9
2014-Apr-02 16:29N 37°41' E 024°15'1715.1
2014-Apr-02 15:20N 37°52' E 024°31'4215.0
2014-Apr-02 12:33N 38°23' E 025°07'74 2.1
2014-Apr-01 01:33N 39°30' E 025°47'2311.3
2014-Mar-31 23:32N 39°53' E 025°52'1210.5
2014-Mar-31 22:25N 40°01' E 026°03'  

Dump ship's entire track history

sailing weather and tide predictions

Maersk Bulan — 9V7693 — position and weather